Time;durP1;ratioP1;P1;durP2;ratioP2;P2;SDS_P1;SDS_P2;PMS_P1;PMS_P2;Temp;Humidity;BMP_temperature;BMP_pressure;BME280_temperature;BME280_humidity;BME280_pressure;Samples;Min_cycle;Max_cycle;Signal;HPM_P1;HPM_P2
2022/03/28 00:01:26;;;;;;;13.60;6.10;;;;;;;9.91;59.63;102608.09;5076912;28;20460;-83
2022/03/28 00:03:52;;;;;;;12.65;6.90;;;;;;;9.95;60.24;102615.09;5076648;28;20138;-83
2022/03/28 00:06:17;;;;;;;12.05;6.70;;;;;;;9.94;59.50;102608.09;5079770;28;20024;-82
2022/03/28 00:08:42;;;;;;;18.00;7.68;;;;;;;9.93;59.83;102612.50;5075173;28;20027;-83
2022/03/28 00:11:08;;;;;;;20.52;7.55;;;;;;;9.87;58.83;102612.53;5076023;28;20093;-83
2022/03/28 00:13:35;;;;;;;17.90;7.85;;;;;;;9.80;59.45;102609.97;5077289;28;20518;-83
2022/03/28 00:16:00;;;;;;;19.63;7.68;;;;;;;9.77;59.67;102612.63;5079218;28;20039;-83
2022/03/28 00:18:26;;;;;;;14.70;7.90;;;;;;;9.73;59.61;102601.19;5078663;28;20020;-83
2022/03/28 00:20:53;;;;;;;17.60;7.75;;;;;;;9.68;59.91;102597.72;5079173;28;20034;-82
2022/03/28 00:23:19;;;;;;;15.95;8.10;;;;;;;9.66;60.13;102588.97;5078400;28;20502;-83
2022/03/28 00:25:45;;;;;;;15.65;8.23;;;;;;;9.63;62.31;102584.56;5078307;28;20111;-83
2022/03/28 00:28:11;;;;;;;12.32;7.50;;;;;;;9.62;63.01;102581.94;5079912;28;20111;-83
2022/03/28 00:30:37;;;;;;;15.07;7.88;;;;;;;9.48;60.81;102574.13;5080041;28;20036;-84
2022/03/28 00:33:03;;;;;;;15.90;7.20;;;;;;;9.51;60.72;102570.56;5080981;28;20032;-83
2022/03/28 00:35:29;;;;;;;17.13;7.28;;;;;;;9.51;60.73;102563.53;5079278;28;20039;-84
2022/03/28 00:37:55;;;;;;;12.45;6.50;;;;;;;9.54;61.74;102567.91;5079317;28;20812;-82
2022/03/28 00:40:22;;;;;;;11.05;5.75;;;;;;;9.48;61.88;102558.28;5077444;28;20438;-82
2022/03/28 00:42:48;;;;;;;9.50;5.10;;;;;;;9.46;61.24;102562.69;5076415;28;20562;-83
2022/03/28 00:45:14;;;;;;;13.52;5.90;;;;;;;9.38;61.45;102557.50;5075474;28;20843;-83
2022/03/28 00:47:40;;;;;;;14.27;6.20;;;;;;;9.31;61.64;102562.81;5079391;28;20027;-83
2022/03/28 00:50:06;;;;;;;16.42;8.18;;;;;;;9.22;61.75;102561.09;5081323;28;20105;-83
2022/03/28 00:52:33;;;;;;;17.05;6.78;;;;;;;9.09;61.82;102557.69;5080373;28;20028;-84
2022/03/28 00:54:59;;;;;;;13.10;7.28;;;;;;;9.00;61.68;102563.03;5076888;28;20784;-82
2022/03/28 00:57:24;;;;;;;14.18;6.95;;;;;;;8.90;61.82;102550.75;5078362;28;20086;-82
2022/03/28 00:59:50;;;;;;;14.15;7.40;;;;;;;8.91;62.02;102560.44;5078200;28;20020;-83
2022/03/28 01:02:15;;;;;;;14.65;7.53;;;;;;;8.92;61.77;102541.09;5079269;28;20043;-82
2022/03/28 01:04:41;;;;;;;13.35;6.60;;;;;;;8.92;61.91;102535.81;5077452;28;20024;-83
2022/03/28 01:07:07;;;;;;;16.45;7.50;;;;;;;8.91;62.19;102539.34;5072733;28;20570;-83
2022/03/28 01:09:33;;;;;;;18.30;7.05;;;;;;;8.88;62.22;102539.34;5077984;28;20070;-83
2022/03/28 01:11:59;;;;;;;16.52;7.10;;;;;;;8.90;62.45;102540.22;5081695;28;20063;-83
2022/03/28 01:14:26;;;;;;;16.35;7.43;;;;;;;8.82;62.38;102540.28;5083225;28;20051;-82
2022/03/28 01:19:35;;;;;;;11.85;7.15;;;;;;;8.69;62.63;102526.28;5082093;28;20082;-83
2022/03/28 01:22:00;;;;;;;16.52;6.65;;;;;;;8.69;62.82;102522.75;5082251;28;20052;-83
2022/03/28 01:24:25;;;;;;;21.92;7.95;;;;;;;8.71;63.27;102522.75;5081018;28;20032;-83
2022/03/28 01:26:52;;;;;;;13.95;6.05;;;;;;;8.63;62.71;102506.97;5080768;28;20059;-82
2022/03/28 01:29:17;;;;;;;12.10;6.20;;;;;;;8.63;62.60;102514.91;5083394;28;20119;-83
2022/03/28 01:31:43;;;;;;;12.43;6.30;;;;;;;8.60;62.91;102518.41;5081930;28;20118;-82
2022/03/28 01:34:21;;;;;;;16.88;7.15;;;;;;;8.55;62.47;102516.69;5081908;28;20037;-83
2022/03/28 01:36:47;;;;;;;17.50;7.25;;;;;;;8.38;63.75;102509.72;5081716;28;20623;-82
2022/03/28 01:39:13;;;;;;;17.60;7.28;;;;;;;8.36;63.37;102500.03;5081793;28;20527;-83
2022/03/28 01:41:39;;;;;;;16.50;6.68;;;;;;;8.45;63.81;102501.81;5080958;28;20052;-82
2022/03/28 01:44:05;;;;;;;14.15;7.30;;;;;;;8.50;65.55;102494.75;5082102;28;20051;-83
2022/03/28 01:46:31;;;;;;;15.00;7.97;;;;;;;8.52;63.26;102496.47;5082824;28;20039;-82
2022/03/28 01:48:56;;;;;;;17.15;7.78;;;;;;;8.46;63.41;102493.88;5082315;28;20032;-82
2022/03/28 01:51:21;;;;;;;17.55;7.93;;;;;;;8.42;63.38;102495.66;5081703;28;20040;-82
2022/03/28 01:53:47;;;;;;;18.55;8.35;;;;;;;8.38;63.49;102493.03;5080800;28;20334;-83
2022/03/28 01:56:12;;;;;;;14.95;7.38;;;;;;;8.39;63.46;102502.69;5082124;28;20131;-82
2022/03/28 01:58:37;;;;;;;20.25;7.95;;;;;;;8.35;63.36;102490.41;5083352;28;20020;-83
2022/03/28 02:01:03;;;;;;;17.15;7.45;;;;;;;8.22;63.77;102496.59;5080377;28;20032;-83
2022/03/28 02:03:28;;;;;;;14.27;6.80;;;;;;;8.19;63.43;102505.38;5079775;28;20047;-83
2022/03/28 02:05:53;;;;;;;11.40;6.32;;;;;;;8.18;63.37;102499.22;5081741;28;20060;-82
2022/03/28 02:08:19;;;;;;;12.80;6.65;;;;;;;8.12;63.46;102487.84;5080221;28;20035;-82
2022/03/28 02:10:44;;;;;;;14.52;7.05;;;;;;;8.02;64.23;102497.53;5080479;28;20279;-82
2022/03/28 02:13:09;;;;;;;16.02;8.20;;;;;;;7.85;64.60;102486.16;5078757;28;20089;-83
2022/03/28 02:15:34;;;;;;;16.30;7.18;;;;;;;7.87;64.25;102489.66;5083289;28;20038;-82
2022/03/28 02:18:00;;;;;;;17.27;7.55;;;;;;;7.91;63.83;102486.13;5082067;28;20111;-82
2022/03/28 02:20:25;;;;;;;17.77;7.40;;;;;;;7.91;63.90;102480.88;5083257;28;20406;-83
2022/03/28 02:22:50;;;;;;;18.35;7.40;;;;;;;7.88;64.42;102489.69;5078589;28;20040;-83
2022/03/28 02:25:17;;;;;;;16.27;7.18;;;;;;;7.84;64.06;102476.53;5082890;28;20111;-83
2022/03/28 02:27:43;;;;;;;19.50;7.50;;;;;;;7.65;64.90;102480.94;5080358;28;20055;-82
2022/03/28 02:30:11;;;;;;;17.75;7.15;;;;;;;7.47;65.41;102481.84;5080565;28;20479;-82
2022/03/28 02:32:36;;;;;;;13.43;7.15;;;;;;;7.35;65.76;102471.31;5081086;28;20507;-82
2022/03/28 02:35:04;;;;;;;17.95;7.45;;;;;;;7.46;65.09;102479.19;5081813;28;20020;-84
2022/03/28 02:37:30;;;;;;;19.15;7.47;;;;;;;7.55;64.50;102474.78;5078901;28;20024;-83
2022/03/28 02:39:55;;;;;;;17.40;7.53;;;;;;;7.62;67.96;102466.03;5081242;28;20109;-83
2022/03/28 02:42:24;;;;;;;17.95;7.82;;;;;;;7.65;65.14;102465.16;5080420;28;20426;-83
2022/03/28 02:44:51;;;;;;;14.93;7.40;;;;;;;7.65;65.50;102459.91;5082150;28;20026;-82
2022/03/28 02:47:20;;;;;;;11.82;6.65;;;;;;;7.73;65.84;102457.22;5079901;28;20070;-83
2022/03/28 02:49:46;;;;;;;15.57;5.72;;;;;;;7.73;66.44;102451.97;5083338;28;20024;-82
2022/03/28 02:52:12;;;;;;;8.32;5.10;;;;;;;7.68;65.24;102452.84;5081291;28;20055;-84
2022/03/28 02:54:37;;;;;;;16.30;9.27;;;;;;;7.62;65.03;102447.59;5084240;28;20081;-82
2022/03/28 02:57:02;;;;;;;17.48;8.73;;;;;;;7.55;65.16;102440.59;5081283;28;20127;-83
2022/03/28 02:59:28;;;;;;;20.92;9.27;;;;;;;7.54;65.02;102443.22;5079633;28;20035;-82
2022/03/28 03:01:54;;;;;;;19.25;8.70;;;;;;;7.53;67.50;102439.72;5080235;28;20502;-82
2022/03/28 03:04:20;;;;;;;15.30;7.40;;;;;;;7.52;65.15;102434.47;5079417;28;20032;-83
2022/03/28 03:06:45;;;;;;;20.48;8.60;;;;;;;7.53;65.39;102438.84;5079184;28;20024;-83
2022/03/28 03:09:10;;;;;;;18.85;7.68;;;;;;;7.46;65.34;102431.81;5079810;28;20031;-83
2022/03/28 03:11:36;;;;;;;15.65;7.68;;;;;;;7.39;65.48;102428.34;5081343;28;20085;-82
2022/03/28 03:14:03;;;;;;;15.60;7.22;;;;;;;7.30;65.49;102417.84;5082847;28;20028;-83
2022/03/28 03:16:28;;;;;;;12.43;6.13;;;;;;;7.30;65.16;102429.22;5080415;28;20502;-82
2022/03/28 03:18:54;;;;;;;9.45;5.88;;;;;;;7.17;65.67;102422.22;5083484;28;20051;-82
2022/03/28 03:21:20;;;;;;;12.25;6.85;;;;;;;7.10;65.52;102421.38;5079147;28;20449;-83
2022/03/28 03:23:46;;;;;;;14.07;6.50;;;;;;;7.11;65.58;102427.50;5081015;28;20155;-82
2022/03/28 03:26:11;;;;;;;14.77;5.75;;;;;;;7.13;65.56;102424.00;5080390;28;20118;-83
2022/03/28 03:28:36;;;;;;;16.60;7.57;;;;;;;7.14;65.62;102423.13;5081973;28;20036;-82
2022/03/28 03:31:02;;;;;;;13.40;6.93;;;;;;;7.15;65.27;102427.50;5083164;28;20133;-82
2022/03/28 03:33:28;;;;;;;17.02;7.57;;;;;;;7.20;68.79;102419.59;5076287;28;20035;-83
2022/03/28 03:35:54;;;;;;;19.60;8.45;;;;;;;7.22;67.44;102415.19;5081267;28;20032;-82
2022/03/28 03:38:20;;;;;;;16.45;7.68;;;;;;;7.20;65.96;102413.47;5081745;28;20467;-83
2022/03/28 03:40:45;;;;;;;13.30;6.47;;;;;;;7.08;65.27;102407.31;5082926;28;20067;-82
2022/03/28 03:43:10;;;;;;;15.60;7.47;;;;;;;7.14;65.98;102415.22;5080200;28;20032;-83
2022/03/28 03:45:35;;;;;;;18.77;8.15;;;;;;;7.18;65.68;102420.47;5080933;28;20084;-82
2022/03/28 03:48:01;;;;;;;17.15;7.32;;;;;;;7.03;65.87;102406.44;5079174;28;20415;-83
2022/03/28 03:50:26;;;;;;;21.60;9.43;;;;;;;7.05;70.28;102402.09;5080013;28;20042;-82
2022/03/28 03:52:54;;;;;;;16.73;7.40;;;;;;;7.02;65.48;102394.19;5081120;28;20055;-82
2022/03/28 03:55:19;;;;;;;17.02;7.55;;;;;;;7.03;65.71;102392.44;5081721;28;20028;-82
2022/03/28 03:57:46;;;;;;;15.35;6.40;;;;;;;7.07;65.43;102399.44;5080152;28;20691;-82
2022/03/28 04:00:12;;;;;;;11.95;5.57;;;;;;;6.96;65.80;102394.19;5081091;28;20433;-82
2022/03/28 04:02:38;;;;;;;11.25;6.32;;;;;;;6.94;65.87;102395.94;5077436;28;20992;-82
2022/03/28 04:05:03;;;;;;;8.70;5.13;;;;;;;6.87;65.92;102386.31;5082053;28;20051;-83
2022/03/28 04:07:29;;;;;;;7.93;4.60;;;;;;;6.87;66.60;102386.31;5078001;28;20032;-83
2022/03/28 04:09:54;;;;;;;6.90;4.28;;;;;;;6.86;65.41;102388.06;5083039;28;20039;-82
2022/03/28 04:12:19;;;;;;;7.40;4.82;;;;;;;6.87;65.15;102375.78;5077063;28;20107;-82
2022/03/28 04:14:45;;;;;;;11.98;6.07;;;;;;;6.87;65.72;102378.44;5080348;28;20110;-82
2022/03/28 04:17:10;;;;;;;8.50;5.25;;;;;;;6.82;65.62;102381.06;5079424;28;20036;-82
2022/03/28 04:19:35;;;;;;;11.85;5.65;;;;;;;6.76;66.09;102378.44;5079000;28;20033;-82
2022/03/28 04:22:01;;;;;;;11.55;5.55;;;;;;;6.64;66.49;102378.41;5076811;28;20053;-82
2022/03/28 04:24:26;;;;;;;12.60;6.45;;;;;;;6.40;67.01;102374.00;5076802;28;20032;-82
2022/03/28 04:26:51;;;;;;;14.55;6.18;;;;;;;6.14;67.45;102366.06;5079367;28;20024;-82
2022/03/28 04:29:16;;;;;;;12.35;6.70;;;;;;;6.01;68.46;102373.00;5081371;28;20369;-82
2022/03/28 04:31:42;;;;;;;11.15;5.75;;;;;;;6.09;69.55;102367.78;5080065;28;20543;-83
2022/03/28 04:34:09;;;;;;;13.60;6.20;;;;;;;6.16;67.97;102371.34;5080157;28;20077;-82
2022/03/28 04:36:35;;;;;;;11.27;5.97;;;;;;;6.16;67.54;102363.47;5079181;28;20471;-82
2022/03/28 04:39:00;;;;;;;14.90;6.63;;;;;;;6.14;67.36;102364.31;5077666;28;20058;-82
2022/03/28 04:41:26;;;;;;;15.43;7.10;;;;;;;6.22;66.96;102379.22;5080894;28;20084;-83
2022/03/28 04:43:51;;;;;;;12.20;7.07;;;;;;;6.14;67.27;102371.31;5079815;28;20104;-83
2022/03/28 04:46:16;;;;;;;18.30;6.93;;;;;;;6.11;66.70;102379.19;5079936;28;20106;-83
2022/03/28 04:48:42;;;;;;;15.07;7.00;;;;;;;5.89;68.51;102383.47;5084148;28;20046;-82
2022/03/28 04:51:08;;;;;;;16.58;6.97;;;;;;;5.79;68.16;102389.53;5082611;28;20512;-83
2022/03/28 04:53:34;;;;;;;16.25;6.28;;;;;;;5.86;70.07;102380.81;5082785;28;20032;-82
2022/03/28 04:55:59;;;;;;;12.38;6.40;;;;;;;5.93;69.72;102384.38;5084866;28;21042;-82
2022/03/28 04:58:24;;;;;;;12.90;6.50;;;;;;;5.99;72.01;102374.78;5082413;28;20035;-83
2022/03/28 05:00:51;;;;;;;15.85;6.82;;;;;;;6.00;69.77;102373.91;5083694;28;20032;-82
2022/03/28 05:03:16;;;;;;;14.93;6.82;;;;;;;5.90;70.37;102369.44;5081084;28;20109;-83
2022/03/28 05:05:42;;;;;;;14.80;5.63;;;;;;;5.88;68.73;102371.22;5083464;28;20479;-83
2022/03/28 05:08:07;;;;;;;9.73;6.00;;;;;;;5.83;67.99;102373.81;5084248;28;20028;-83
2022/03/28 05:10:32;;;;;;;6.25;4.45;;;;;;;5.76;68.61;102379.03;5084853;28;20024;-82
2022/03/28 05:12:58;;;;;;;10.68;5.63;;;;;;;5.78;68.55;102372.03;5077775;28;20021;-82
2022/03/28 05:15:23;;;;;;;12.13;6.30;;;;;;;5.82;68.13;102365.91;5084376;28;20036;-82
2022/03/28 05:17:48;;;;;;;15.77;6.53;;;;;;;5.88;67.71;102374.72;5082087;28;20495;-83
2022/03/28 05:20:14;;;;;;;13.68;6.43;;;;;;;5.86;68.17;102372.94;5082831;28;20047;-82
2022/03/28 05:22:39;;;;;;;15.52;5.88;;;;;;;5.87;68.01;102374.69;5082501;28;20024;-82
2022/03/28 05:25:05;;;;;;;13.80;6.28;;;;;;;5.85;68.72;102364.19;5083438;28;20028;-82
2022/03/28 05:27:31;;;;;;;13.00;5.47;;;;;;;5.86;68.06;102363.31;5080277;28;20040;-82
2022/03/28 05:29:58;;;;;;;12.43;5.63;;;;;;;5.90;67.56;102369.44;5082825;28;20383;-82
2022/03/28 05:32:23;;;;;;;10.52;5.53;;;;;;;5.88;67.49;102377.34;5083758;28;20032;-82
2022/03/28 05:34:48;;;;;;;10.23;5.28;;;;;;;5.87;67.29;102374.69;5083852;28;20020;-82
2022/03/28 05:37:16;;;;;;;10.73;5.32;;;;;;;5.84;67.65;102367.69;5081556;28;20444;-82
2022/03/28 05:39:43;;;;;;;12.98;5.85;;;;;;;5.78;67.97;102380.78;5084416;28;20024;-82
2022/03/28 05:42:08;;;;;;;11.75;6.28;;;;;;;5.65;68.62;102367.63;5079402;28;20102;-82
2022/03/28 05:44:45;;;;;;;20.73;8.70;;;;;;;5.60;68.62;102371.09;5081442;28;20093;-83
2022/03/28 05:47:10;;;;;;;12.82;5.90;;;;;;;5.66;68.72;102375.47;5080780;28;20585;-82
2022/03/28 05:49:35;;;;;;;13.80;6.55;;;;;;;5.73;68.35;102365.88;5082511;28;20075;-82
2022/03/28 05:52:01;;;;;;;15.80;7.05;;;;;;;5.83;68.07;102365.06;5082555;28;20026;-82
2022/03/28 05:54:26;;;;;;;19.48;6.78;;;;;;;5.94;67.87;102366.00;5083713;28;20957;-81
2022/03/28 05:56:51;;;;;;;14.43;6.93;;;;;;;5.99;67.84;102363.41;5079833;28;20032;-82
2022/03/28 05:59:17;;;;;;;13.15;5.93;;;;;;;6.06;68.77;102357.28;5082220;28;20394;-82
2022/03/28 06:01:42;;;;;;;6.88;4.30;;;;;;;6.19;69.78;102355.56;5078686;28;20124;-82
2022/03/28 06:04:07;;;;;;;8.23;3.95;;;;;;;6.20;67.55;102352.06;5081562;28;20044;-82
2022/03/28 06:06:33;;;;;;;6.15;4.45;;;;;;;6.19;67.16;102351.19;5079232;28;20111;-83
2022/03/28 06:08:59;;;;;;;7.32;4.25;;;;;;;6.19;67.70;102353.81;5079062;28;20031;-82
2022/03/28 06:11:24;;;;;;;8.20;5.00;;;;;;;6.16;67.80;102348.56;5081246;28;20024;-82
2022/03/28 06:13:50;;;;;;;13.15;4.63;;;;;;;6.25;68.25;102348.59;5078107;28;20028;-82
2022/03/28 06:16:15;;;;;;;8.05;4.47;;;;;;;6.31;67.73;102351.22;5080271;28;20020;-83
2022/03/28 06:18:41;;;;;;;8.13;4.43;;;;;;;6.35;67.93;102352.97;5079761;28;20024;-83
2022/03/28 06:21:07;;;;;;;9.50;4.78;;;;;;;6.34;68.29;102355.59;5079904;28;20089;-83
2022/03/28 06:23:33;;;;;;;14.35;6.57;;;;;;;6.32;69.33;102357.34;5078178;28;20036;-82
2022/03/28 06:25:59;;;;;;;16.48;6.53;;;;;;;6.32;69.40;102357.34;5079648;28;20035;-83
2022/03/28 06:28:24;;;;;;;23.02;5.88;;;;;;;6.16;70.11;102352.97;5080406;28;20032;-82
2022/03/28 06:30:49;;;;;;;18.30;7.43;;;;;;;6.03;70.89;102345.03;5081291;28;20081;-83
2022/03/28 06:33:15;;;;;;;11.70;6.28;;;;;;;6.13;70.16;102348.56;5079428;28;20043;-82
2022/03/28 06:35:41;;;;;;;14.20;5.93;;;;;;;6.33;69.79;102345.97;5082474;28;20031;-82
2022/03/28 06:38:07;;;;;;;13.50;6.22;;;;;;;6.56;70.21;102357.38;5083046;28;20518;-83
2022/03/28 06:40:33;;;;;;;17.77;6.93;;;;;;;6.61;71.31;102344.25;5044330;28;1089787;-82
2022/03/28 06:42:58;;;;;;;10.35;5.00;;;;;;;6.74;70.50;102347.75;5081384;28;20051;-82
2022/03/28 06:45:23;;;;;;;14.20;6.55;;;;;;;6.81;70.50;102339.88;5080991;28;20043;-82
2022/03/28 06:47:51;;;;;;;17.88;7.40;;;;;;;6.96;70.54;102351.25;5083144;28;20024;-83
2022/03/28 06:50:18;;;;;;;24.05;7.18;;;;;;;7.08;70.74;102345.97;5082402;28;20032;-83
2022/03/28 06:52:43;;;;;;;20.00;6.90;;;;;;;7.20;70.26;102345.06;5077129;28;20089;-83
2022/03/28 06:55:10;;;;;;;77.30;10.40;;;;;;;7.37;71.22;102348.56;5081168;28;20027;-84
2022/03/28 06:57:36;;;;;;;22.42;7.45;;;;;;;7.44;70.84;102352.91;5079567;28;20028;-82
2022/03/28 07:00:01;;;;;;;32.47;9.30;;;;;;;7.60;71.04;102343.19;5078348;28;20046;-82
2022/03/28 07:02:27;;;;;;;22.60;8.10;;;;;;;7.72;70.61;102348.41;5078391;28;20036;-82
2022/03/28 07:04:52;;;;;;;25.67;9.40;;;;;;;7.80;70.43;102344.00;5083248;28;20028;-82
2022/03/28 07:07:17;;;;;;;29.27;8.60;;;;;;;7.90;70.78;102342.19;5077395;28;20019;-83
2022/03/28 07:09:43;;;;;;;29.38;7.38;;;;;;;8.01;70.51;102334.22;5081485;28;20028;-82
2022/03/28 07:12:09;;;;;;;29.85;9.27;;;;;;;8.10;69.84;102335.06;5080990;28;20111;-82
2022/03/28 07:14:34;;;;;;;27.60;8.73;;;;;;;8.19;70.51;102337.63;5079386;28;20142;-83
2022/03/28 07:17:01;;;;;;;22.48;8.48;;;;;;;8.24;70.51;102327.06;5082516;28;20470;-83
2022/03/28 07:19:26;;;;;;;22.98;8.30;;;;;;;8.32;69.68;102327.91;5081545;28;20382;-83
2022/03/28 07:21:52;;;;;;;29.73;10.30;;;;;;;8.41;70.18;102327.00;5081043;28;20032;-82
2022/03/28 07:24:18;;;;;;;20.45;8.85;;;;;;;8.49;70.03;102326.94;5077817;28;20114;-83
2022/03/28 07:26:48;;;;;;;22.30;10.07;;;;;;;8.58;69.28;102326.84;5079503;28;20105;-83
2022/03/28 07:29:17;;;;;;;24.23;9.60;;;;;;;8.79;70.39;102333.72;5080493;28;21578;-83
2022/03/28 07:31:44;;;;;;;23.50;10.40;;;;;;;8.91;69.16;102321.31;5077390;28;20036;-83
2022/03/28 07:36:53;;;;;;;27.73;10.38;;;;;;;9.10;68.91;102321.13;5078849;28;20043;-83
2022/03/28 07:39:22;;;;;;;28.13;11.18;;;;;;;9.19;68.57;102313.09;5079728;28;20637;-83
2022/03/28 07:41:48;;;;;;;25.63;10.35;;;;;;;9.35;68.21;102316.44;5080505;28;20071;-83
2022/03/28 07:44:14;;;;;;;32.33;11.65;;;;;;;9.49;67.87;102311.88;5078972;28;20023;-83
2022/03/28 07:46:40;;;;;;;32.75;11.98;;;;;;;9.63;68.12;102311.69;5078114;28;20449;-83
2022/03/28 07:49:07;;;;;;;27.50;11.98;;;;;;;9.79;67.18;102317.66;5079133;28;20032;-83
2022/03/28 07:51:32;;;;;;;29.85;10.73;;;;;;;9.83;67.67;102307.03;5080838;28;20590;-83
2022/03/28 07:53:57;;;;;;;24.35;11.13;;;;;;;10.00;66.68;102298.88;5079041;28;20161;-83
2022/03/28 07:56:23;;;;;;;27.38;11.55;;;;;;;10.32;66.96;102298.44;5078913;28;20024;-83
2022/03/28 07:58:48;;;;;;;31.02;12.23;;;;;;;10.65;67.00;102293.47;5078885;28;20107;-83
2022/03/28 08:01:13;;;;;;;24.52;11.38;;;;;;;10.93;65.58;102284.16;5078260;28;20067;-84
2022/03/28 08:03:39;;;;;;;24.75;11.95;;;;;;;11.27;64.20;102274.69;5081370;28;20024;-83
2022/03/28 08:06:04;;;;;;;29.85;12.48;;;;;;;11.63;62.72;102287.16;5077842;28;20506;-83
2022/03/28 08:08:32;;;;;;;31.08;12.68;;;;;;;11.80;61.99;102284.16;5078662;28;20141;-84
2022/03/28 08:10:58;;;;;;;33.20;12.90;;;;;;;12.06;60.88;102299.50;5080230;28;20024;-83
2022/03/28 08:13:23;;;;;;;32.15;12.48;;;;;;;11.93;60.09;102292.72;5076046;28;20034;-83
2022/03/28 08:15:49;;;;;;;24.85;11.55;;;;;;;12.13;61.05;102290.50;5078603;28;20024;-84
2022/03/28 08:18:15;;;;;;;31.85;11.95;;;;;;;12.64;58.89;102286.63;5079769;28;20040;-83
2022/03/28 08:20:40;;;;;;;28.98;12.25;;;;;;;13.06;57.64;102284.63;5078426;28;20621;-83
2022/03/28 08:23:06;;;;;;;35.65;12.95;;;;;;;13.20;57.55;102276.25;5073520;28;20027;-83
2022/03/28 08:25:32;;;;;;;29.85;12.50;;;;;;;13.62;57.26;102274.19;5079773;28;20036;-84
2022/03/28 08:27:58;;;;;;;31.08;12.43;;;;;;;14.00;56.27;102278.31;5077171;28;20032;-83
2022/03/28 08:30:23;;;;;;;27.45;11.48;;;;;;;14.30;54.54;102256.94;5076430;28;20029;-83
2022/03/28 08:32:49;;;;;;;29.77;12.27;;;;;;;14.51;54.01;102264.25;5077833;28;20035;-83
2022/03/28 08:35:14;;;;;;;36.05;13.30;;;;;;;14.63;52.89;102268.28;5073673;28;20406;-83
2022/03/28 08:37:40;;;;;;;27.33;12.60;;;;;;;14.86;52.59;102267.50;5080223;28;20115;-83
2022/03/28 08:40:05;;;;;;;28.50;14.13;;;;;;;15.27;51.90;102263.34;5078009;28;20036;-83
2022/03/28 08:42:33;;;;;;;33.03;13.43;;;;;;;15.60;50.89;102265.66;5077818;28;20043;-83
2022/03/28 08:44:58;;;;;;;24.52;12.88;;;;;;;15.97;50.37;102269.59;5076714;28;20236;-83
2022/03/28 08:47:24;;;;;;;33.03;12.93;;;;;;;16.18;49.65;102255.38;5073369;28;20047;-83
2022/03/28 08:49:51;;;;;;;28.95;12.43;;;;;;;16.53;49.06;102263.72;5072423;28;20040;-84
2022/03/28 08:52:17;;;;;;;31.35;13.40;;;;;;;16.68;49.19;102252.38;5079677;28;20479;-83
2022/03/28 08:54:43;;;;;;;30.50;13.73;;;;;;;17.03;47.66;102255.34;5078224;28;20040;-83
2022/03/28 08:57:13;;;;;;;29.35;13.73;;;;;;;17.16;45.89;102256.53;5073317;28;20081;-84
2022/03/28 08:59:38;;;;;;;29.83;13.88;;;;;;;17.31;47.10;102250.47;5070443;28;20043;-83
2022/03/28 09:02:03;;;;;;;37.97;15.15;;;;;;;17.64;45.60;102251.66;5087190;28;20134;-83
2022/03/28 09:04:29;;;;;;;29.00;13.50;;;;;;;17.83;45.00;102249.88;5077786;28;20027;-84
2022/03/28 09:06:57;;;;;;;30.67;14.45;;;;;;;18.21;44.76;102263.19;5074157;28;20046;-84
2022/03/28 09:09:29;;;;;;;34.45;14.38;;;;;;;18.72;43.36;102254.34;5078052;28;20523;-84
2022/03/28 09:11:58;;;;;;;36.30;14.30;;;;;;;19.08;42.87;102251.56;5077614;28;20016;-85
2022/03/28 09:14:30;;;;;;;30.50;14.68;;;;;;;19.49;42.80;102248.44;5075425;28;20028;-85
2022/03/28 09:17:01;;;;;;;36.40;14.02;;;;;;;19.91;41.72;102252.41;5075899;28;20063;-83
2022/03/28 09:19:43;;;;;;;32.45;14.52;;;;;;;20.14;42.25;102243.00;5077886;28;20024;-84
2022/03/28 09:22:16;;;;;;;35.50;15.75;;;;;;;20.51;39.94;102238.16;5079858;28;20028;-84
2022/03/28 09:24:43;;;;;;;32.63;16.33;;;;;;;20.80;37.81;102237.31;5074872;28;20035;-84
2022/03/28 09:27:10;;;;;;;31.73;16.33;;;;;;;21.13;38.77;102241.56;5077224;28;20479;-84
2022/03/28 09:30:11;;;;;;;35.42;16.10;;;;;;;21.62;38.57;102239.31;5075218;28;20025;-87
2022/03/28 09:32:48;;;;;;;33.92;17.38;;;;;;;21.84;37.26;102235.25;5080040;28;20552;-87
2022/03/28 09:35:19;;;;;;;39.70;16.80;;;;;;;22.07;35.36;102234.59;5079553;28;20189;-87
2022/03/28 09:38:08;;;;;;;33.75;15.88;;;;;;;22.63;36.95;102229.91;5078845;28;20059;-87
2022/03/28 09:40:42;;;;;;;31.38;15.27;;;;;;;23.08;35.46;102238.50;5079549;28;20399;-86
2022/03/28 09:43:22;;;;;;;31.40;15.93;;;;;;;23.49;35.01;102225.69;5079986;28;20526;-88
2022/03/28 09:45:53;;;;;;;33.88;16.70;;;;;;;23.62;32.51;102230.06;5082014;28;20074;-87
2022/03/28 09:48:20;;;;;;;36.17;17.27;;;;;;;23.87;32.71;102225.59;5080861;28;20027;-85
2022/03/28 09:50:48;;;;;;;35.25;18.00;;;;;;;24.07;31.47;102218.72;5081063;28;20398;-87
2022/03/28 09:53:25;;;;;;;38.08;18.02;;;;;;;24.42;31.60;102219.59;5077174;28;20506;-87
2022/03/28 09:55:56;;;;;;;34.22;15.52;;;;;;;24.96;31.41;102214.56;5080325;28;20027;-86
2022/03/28 09:58:37;;;;;;;30.77;15.95;;;;;;;25.65;30.77;102215.31;5080640;28;20448;-85
2022/03/28 10:01:11;;;;;;;37.63;17.17;;;;;;;25.81;29.58;102206.78;5078071;28;20040;-87
2022/03/28 10:03:37;;;;;;;36.17;16.90;;;;;;;26.32;29.42;102203.38;5080303;28;20027;-86
2022/03/28 10:06:05;;;;;;;28.15;16.90;;;;;;;26.52;27.44;102210.69;5082395;28;20487;-86
2022/03/28 10:08:31;;;;;;;32.67;17.70;;;;;;;26.66;27.73;102199.50;5079340;28;20026;-86
2022/03/28 10:10:58;;;;;;;35.58;17.20;;;;;;;27.04;26.85;102210.69;5080281;28;20028;-86
2022/03/28 10:13:23;;;;;;;37.95;18.23;;;;;;;27.10;25.75;102186.63;5082141;28;20060;-86
2022/03/28 10:15:49;;;;;;;35.10;17.08;;;;;;;27.19;26.62;102195.81;5080133;28;20504;-86
2022/03/28 10:18:15;;;;;;;30.02;16.33;;;;;;;27.64;25.75;102198.94;5083721;28;20016;-86
2022/03/28 10:20:46;;;;;;;36.05;18.45;;;;;;;28.01;25.47;102194.72;5084024;28;20543;-86
2022/03/28 10:23:14;;;;;;;34.15;17.90;;;;;;;28.15;25.23;102186.13;5077976;28;20069;-87
2022/03/28 10:25:41;;;;;;;35.75;17.35;;;;;;;28.42;24.68;102197.16;5080141;28;20544;-86
2022/03/28 10:28:08;;;;;;;27.40;15.88;;;;;;;28.56;25.08;102190.41;5083248;28;20036;-85
2022/03/28 10:30:34;;;;;;;36.28;17.35;;;;;;;28.53;24.25;102184.41;5074683;28;20445;-86
2022/03/28 10:33:21;;;;;;;32.00;16.98;;;;;;;28.71;25.24;102183.47;5080667;28;20070;-85
2022/03/28 10:36:17;;;;;;;29.48;16.80;;;;;;;29.13;24.85;102176.78;5082055;28;20035;-85
2022/03/28 10:38:42;;;;;;;32.85;17.40;;;;;;;29.57;22.42;102168.84;5078608;28;20036;-86
2022/03/28 10:41:15;;;;;;;32.17;17.70;;;;;;;29.71;23.91;102171.88;5081671;28;20105;-86
2022/03/28 10:43:40;;;;;;;31.67;17.75;;;;;;;29.78;22.73;102160.34;5079509;28;20500;-86
2022/03/28 10:46:09;;;;;;;31.50;17.30;;;;;;;29.71;21.94;102158.25;5081755;28;20133;-86
2022/03/28 10:48:34;;;;;;;33.05;18.20;;;;;;;28.92;22.57;102153.34;5082480;28;20024;-86
2022/03/28 10:51:12;;;;;;;29.70;17.75;;;;;;;28.56;24.66;102157.75;5083506;28;20043;-86
2022/03/28 10:53:55;;;;;;;34.67;18.10;;;;;;;28.38;23.96;102151.34;5082944;28;20016;-87
2022/03/28 10:56:24;;;;;;;35.45;18.88;;;;;;;28.57;24.57;102145.84;5080502;28;20213;-86
2022/03/28 10:59:09;;;;;;;29.63;17.55;;;;;;;28.69;23.86;102146.56;5081811;28;20139;-86
2022/03/28 11:01:40;;;;;;;32.97;17.40;;;;;;;28.40;23.14;102149.38;5083457;28;20383;-86
2022/03/28 11:04:22;;;;;;;28.38;17.25;;;;;;;27.97;24.42;102156.94;5082880;28;20025;-86
2022/03/28 11:07:03;;;;;;;;;;;;;;;28.20;25.36;102145.75;5081636;28;20030;-85
2022/03/28 11:09:41;;;;;;;29.55;17.65;;;;;;;27.82;24.98;102147.50;5077802;28;19920;-88
2022/03/28 11:12:15;;;;;;;29.33;17.95;;;;;;;27.57;25.45;102143.44;5080676;28;20032;-87
2022/03/28 11:14:49;;;;;;;32.15;19.15;;;;;;;27.87;24.21;102137.06;5076024;28;20024;-88
2022/03/28 11:17:21;;;;;;;31.98;19.92;;;;;;;27.65;24.65;102142.72;5076978;28;20077;-87
2022/03/28 11:20:00;;;;;;;28.98;18.33;;;;;;;27.65;25.66;102121.88;5081042;28;20031;-87
2022/03/28 11:22:45;;;;;;;34.50;19.35;;;;;;;27.46;25.46;102125.41;5077656;28;20024;-87
2022/03/28 11:25:37;;;;;;;31.98;19.30;;;;;;;27.57;25.45;102124.44;5074309;28;20059;-88
2022/03/28 11:28:13;;;;;;;32.42;18.65;;;;;;;27.44;25.24;102116.53;5080479;28;20201;-88